sensor_id;sensor_type;location;lat;lon;timestamp;P1;durP1;ratioP1;P2;durP2;ratioP2
55372;SDS011;41249;47.838;16.490;2023-03-23T00:01:16;6.15;;;3.08;;
55372;SDS011;41249;47.838;16.490;2023-03-23T00:03:45;5.80;;;2.92;;
55372;SDS011;41249;47.838;16.490;2023-03-23T00:06:12;4.65;;;2.85;;
55372;SDS011;41249;47.838;16.490;2023-03-23T00:08:42;4.50;;;3.00;;
55372;SDS011;41249;47.838;16.490;2023-03-23T00:11:16;4.55;;;3.20;;
55372;SDS011;41249;47.838;16.490;2023-03-23T00:13:47;5.22;;;3.30;;
55372;SDS011;41249;47.838;16.490;2023-03-23T00:16:18;7.60;;;3.60;;
55372;SDS011;41249;47.838;16.490;2023-03-23T00:18:50;6.63;;;3.17;;
55372;SDS011;41249;47.838;16.490;2023-03-23T00:21:19;7.13;;;3.55;;
55372;SDS011;41249;47.838;16.490;2023-03-23T00:23:45;7.25;;;2.80;;
55372;SDS011;41249;47.838;16.490;2023-03-23T00:26:11;6.45;;;3.03;;
55372;SDS011;41249;47.838;16.490;2023-03-23T00:28:37;7.40;;;3.30;;
55372;SDS011;41249;47.838;16.490;2023-03-23T00:31:07;4.63;;;2.88;;
55372;SDS011;41249;47.838;16.490;2023-03-23T00:33:35;2.83;;;2.33;;
55372;SDS011;41249;47.838;16.490;2023-03-23T00:36:06;5.65;;;3.22;;
55372;SDS011;41249;47.838;16.490;2023-03-23T00:38:33;4.05;;;2.00;;
55372;SDS011;41249;47.838;16.490;2023-03-23T00:41:00;3.13;;;2.10;;
55372;SDS011;41249;47.838;16.490;2023-03-23T00:43:28;3.30;;;2.35;;
55372;SDS011;41249;47.838;16.490;2023-03-23T00:45:54;2.90;;;1.85;;
55372;SDS011;41249;47.838;16.490;2023-03-23T00:48:24;2.72;;;2.03;;
55372;SDS011;41249;47.838;16.490;2023-03-23T00:50:50;3.55;;;2.10;;
55372;SDS011;41249;47.838;16.490;2023-03-23T00:53:16;4.07;;;2.65;;
55372;SDS011;41249;47.838;16.490;2023-03-23T00:55:43;3.13;;;2.35;;
55372;SDS011;41249;47.838;16.490;2023-03-23T00:58:10;4.13;;;2.97;;
55372;SDS011;41249;47.838;16.490;2023-03-23T01:00:36;3.35;;;2.70;;
55372;SDS011;41249;47.838;16.490;2023-03-23T01:03:02;6.03;;;3.33;;
55372;SDS011;41249;47.838;16.490;2023-03-23T01:05:28;5.55;;;3.38;;
55372;SDS011;41249;47.838;16.490;2023-03-23T01:07:57;6.95;;;4.20;;
55372;SDS011;41249;47.838;16.490;2023-03-23T01:10:23;5.03;;;3.42;;
55372;SDS011;41249;47.838;16.490;2023-03-23T01:12:51;3.90;;;2.70;;
55372;SDS011;41249;47.838;16.490;2023-03-23T01:15:18;4.28;;;3.03;;
55372;SDS011;41249;47.838;16.490;2023-03-23T01:17:44;3.97;;;2.83;;
55372;SDS011;41249;47.838;16.490;2023-03-23T01:20:14;5.72;;;2.70;;
55372;SDS011;41249;47.838;16.490;2023-03-23T01:22:41;4.60;;;3.28;;
55372;SDS011;41249;47.838;16.490;2023-03-23T01:25:07;5.28;;;3.08;;
55372;SDS011;41249;47.838;16.490;2023-03-23T01:27:35;6.22;;;3.25;;
55372;SDS011;41249;47.838;16.490;2023-03-23T01:30:01;3.13;;;2.20;;
55372;SDS011;41249;47.838;16.490;2023-03-23T01:32:27;4.18;;;2.25;;
55372;SDS011;41249;47.838;16.490;2023-03-23T01:34:52;4.72;;;2.40;;
55372;SDS011;41249;47.838;16.490;2023-03-23T01:37:18;3.53;;;2.30;;
55372;SDS011;41249;47.838;16.490;2023-03-23T01:39:45;3.20;;;2.30;;
55372;SDS011;41249;47.838;16.490;2023-03-23T01:42:11;4.80;;;2.60;;
55372;SDS011;41249;47.838;16.490;2023-03-23T01:47:02;6.63;;;3.33;;
55372;SDS011;41249;47.838;16.490;2023-03-23T01:49:33;5.45;;;3.10;;
55372;SDS011;41249;47.838;16.490;2023-03-23T01:52:02;5.15;;;2.92;;
55372;SDS011;41249;47.838;16.490;2023-03-23T01:54:35;5.65;;;2.97;;
55372;SDS011;41249;47.838;16.490;2023-03-23T01:57:07;4.25;;;3.45;;
55372;SDS011;41249;47.838;16.490;2023-03-23T01:59:36;4.60;;;2.78;;
55372;SDS011;41249;47.838;16.490;2023-03-23T02:02:03;4.22;;;2.35;;
55372;SDS011;41249;47.838;16.490;2023-03-23T02:04:29;7.25;;;3.10;;
55372;SDS011;41249;47.838;16.490;2023-03-23T02:06:56;4.15;;;2.30;;
55372;SDS011;41249;47.838;16.490;2023-03-23T02:09:24;4.93;;;2.38;;
55372;SDS011;41249;47.838;16.490;2023-03-23T02:11:50;4.72;;;2.50;;
55372;SDS011;41249;47.838;16.490;2023-03-23T02:14:18;5.50;;;3.22;;
55372;SDS011;41249;47.838;16.490;2023-03-23T02:16:46;4.70;;;2.83;;
55372;SDS011;41249;47.838;16.490;2023-03-23T02:22:22;3.70;;;2.85;;
55372;SDS011;41249;47.838;16.490;2023-03-23T02:33:29;3.85;;;1.95;;
55372;SDS011;41249;47.838;16.490;2023-03-23T02:42:11;4.32;;;2.70;;
55372;SDS011;41249;47.838;16.490;2023-03-23T02:44:41;6.63;;;3.05;;
55372;SDS011;41249;47.838;16.490;2023-03-23T02:47:15;4.43;;;3.17;;
55372;SDS011;41249;47.838;16.490;2023-03-23T02:49:45;3.20;;;2.47;;
55372;SDS011;41249;47.838;16.490;2023-03-23T02:52:14;2.90;;;2.20;;
55372;SDS011;41249;47.838;16.490;2023-03-23T02:54:45;3.42;;;2.30;;
55372;SDS011;41249;47.838;16.490;2023-03-23T02:57:13;5.13;;;2.28;;
55372;SDS011;41249;47.838;16.490;2023-03-23T02:59:39;4.43;;;2.65;;
55372;SDS011;41249;47.838;16.490;2023-03-23T03:02:07;3.83;;;2.47;;
55372;SDS011;41249;47.838;16.490;2023-03-23T03:04:36;2.72;;;2.00;;
55372;SDS011;41249;47.838;16.490;2023-03-23T03:15:21;7.93;;;2.17;;
55372;SDS011;41249;47.838;16.490;2023-03-23T03:18:34;5.50;;;1.60;;
55372;SDS011;41249;47.838;16.490;2023-03-23T03:20:49;2.10;;;1.38;;
55372;SDS011;41249;47.838;16.490;2023-03-23T03:23:20;1.88;;;1.27;;
55372;SDS011;41249;47.838;16.490;2023-03-23T03:25:47;2.85;;;1.48;;
55372;SDS011;41249;47.838;16.490;2023-03-23T03:28:18;2.47;;;1.98;;
55372;SDS011;41249;47.838;16.490;2023-03-23T03:30:51;3.83;;;1.52;;
55372;SDS011;41249;47.838;16.490;2023-03-23T03:33:19;4.30;;;2.70;;
55372;SDS011;41249;47.838;16.490;2023-03-23T03:35:50;3.92;;;3.10;;
55372;SDS011;41249;47.838;16.490;2023-03-23T03:38:19;3.65;;;2.03;;
55372;SDS011;41249;47.838;16.490;2023-03-23T03:40:45;9.55;;;3.47;;
55372;SDS011;41249;47.838;16.490;2023-03-23T03:43:10;4.72;;;2.90;;
55372;SDS011;41249;47.838;16.490;2023-03-23T03:45:36;5.88;;;3.80;;
55372;SDS011;41249;47.838;16.490;2023-03-23T03:48:01;4.85;;;3.13;;
55372;SDS011;41249;47.838;16.490;2023-03-23T03:50:27;5.30;;;2.90;;
55372;SDS011;41249;47.838;16.490;2023-03-23T03:52:53;6.38;;;3.40;;
55372;SDS011;41249;47.838;16.490;2023-03-23T03:55:18;7.82;;;3.15;;
55372;SDS011;41249;47.838;16.490;2023-03-23T03:57:44;7.63;;;3.33;;
55372;SDS011;41249;47.838;16.490;2023-03-23T04:00:10;4.88;;;3.30;;
55372;SDS011;41249;47.838;16.490;2023-03-23T04:02:40;6.63;;;4.35;;
55372;SDS011;41249;47.838;16.490;2023-03-23T04:05:12;9.13;;;3.40;;
55372;SDS011;41249;47.838;16.490;2023-03-23T04:07:38;5.03;;;3.30;;
55372;SDS011;41249;47.838;16.490;2023-03-23T04:10:07;4.38;;;3.22;;
55372;SDS011;41249;47.838;16.490;2023-03-23T04:12:34;5.38;;;3.08;;
55372;SDS011;41249;47.838;16.490;2023-03-23T04:15:01;9.00;;;3.55;;
55372;SDS011;41249;47.838;16.490;2023-03-23T04:17:27;6.35;;;3.35;;
55372;SDS011;41249;47.838;16.490;2023-03-23T04:19:56;4.93;;;3.42;;
55372;SDS011;41249;47.838;16.490;2023-03-23T04:22:22;4.95;;;3.10;;
55372;SDS011;41249;47.838;16.490;2023-03-23T04:25:04;4.28;;;2.97;;
55372;SDS011;41249;47.838;16.490;2023-03-23T04:27:31;7.30;;;3.90;;
55372;SDS011;41249;47.838;16.490;2023-03-23T04:29:57;11.52;;;2.92;;
55372;SDS011;41249;47.838;16.490;2023-03-23T04:32:24;3.08;;;2.45;;
55372;SDS011;41249;47.838;16.490;2023-03-23T04:35:03;3.20;;;2.45;;
55372;SDS011;41249;47.838;16.490;2023-03-23T04:37:28;4.90;;;2.95;;
55372;SDS011;41249;47.838;16.490;2023-03-23T04:39:55;4.43;;;3.42;;
55372;SDS011;41249;47.838;16.490;2023-03-23T04:42:28;6.35;;;3.88;;
55372;SDS011;41249;47.838;16.490;2023-03-23T04:44:59;4.95;;;4.10;;
55372;SDS011;41249;47.838;16.490;2023-03-23T04:47:25;6.43;;;4.05;;
55372;SDS011;41249;47.838;16.490;2023-03-23T04:49:55;8.10;;;4.15;;
55372;SDS011;41249;47.838;16.490;2023-03-23T04:52:23;6.15;;;4.72;;
55372;SDS011;41249;47.838;16.490;2023-03-23T04:54:54;6.82;;;4.80;;
55372;SDS011;41249;47.838;16.490;2023-03-23T04:57:22;6.18;;;3.90;;
55372;SDS011;41249;47.838;16.490;2023-03-23T04:59:48;6.55;;;4.20;;
55372;SDS011;41249;47.838;16.490;2023-03-23T05:02:14;12.73;;;4.25;;
55372;SDS011;41249;47.838;16.490;2023-03-23T05:04:40;5.70;;;4.15;;
55372;SDS011;41249;47.838;16.490;2023-03-23T05:07:10;9.63;;;4.20;;
55372;SDS011;41249;47.838;16.490;2023-03-23T05:09:36;6.38;;;4.60;;
55372;SDS011;41249;47.838;16.490;2023-03-23T05:12:05;6.40;;;3.95;;
55372;SDS011;41249;47.838;16.490;2023-03-23T05:14:32;6.10;;;4.20;;
55372;SDS011;41249;47.838;16.490;2023-03-23T05:16:57;4.70;;;3.45;;
55372;SDS011;41249;47.838;16.490;2023-03-23T05:19:23;6.90;;;4.68;;
55372;SDS011;41249;47.838;16.490;2023-03-23T05:21:49;5.57;;;3.88;;
55372;SDS011;41249;47.838;16.490;2023-03-23T05:24:14;5.03;;;3.40;;
55372;SDS011;41249;47.838;16.490;2023-03-23T05:26:40;5.60;;;3.55;;
55372;SDS011;41249;47.838;16.490;2023-03-23T05:29:06;4.32;;;3.20;;
55372;SDS011;41249;47.838;16.490;2023-03-23T05:31:31;5.20;;;3.95;;
55372;SDS011;41249;47.838;16.490;2023-03-23T05:33:57;5.25;;;4.35;;
55372;SDS011;41249;47.838;16.490;2023-03-23T05:36:22;5.72;;;3.70;;
55372;SDS011;41249;47.838;16.490;2023-03-23T05:38:48;4.97;;;3.13;;
55372;SDS011;41249;47.838;16.490;2023-03-23T05:41:16;4.47;;;3.10;;
55372;SDS011;41249;47.838;16.490;2023-03-23T05:43:41;4.93;;;3.67;;
55372;SDS011;41249;47.838;16.490;2023-03-23T05:46:07;4.25;;;2.72;;
55372;SDS011;41249;47.838;16.490;2023-03-23T05:48:33;2.97;;;2.10;;
55372;SDS011;41249;47.838;16.490;2023-03-23T05:50:59;3.67;;;2.63;;
55372;SDS011;41249;47.838;16.490;2023-03-23T05:53:25;4.82;;;2.92;;
55372;SDS011;41249;47.838;16.490;2023-03-23T05:55:51;4.90;;;2.90;;
55372;SDS011;41249;47.838;16.490;2023-03-23T05:58:17;3.90;;;2.95;;
55372;SDS011;41249;47.838;16.490;2023-03-23T06:00:43;8.77;;;3.60;;
55372;SDS011;41249;47.838;16.490;2023-03-23T06:03:10;5.97;;;3.08;;
55372;SDS011;41249;47.838;16.490;2023-03-23T06:05:41;8.77;;;3.35;;
55372;SDS011;41249;47.838;16.490;2023-03-23T06:08:09;4.80;;;3.60;;
55372;SDS011;41249;47.838;16.490;2023-03-23T06:10:35;6.68;;;4.68;;
55372;SDS011;41249;47.838;16.490;2023-03-23T06:13:03;7.75;;;4.40;;
55372;SDS011;41249;47.838;16.490;2023-03-23T06:15:29;9.80;;;4.25;;
55372;SDS011;41249;47.838;16.490;2023-03-23T06:18:00;11.15;;;4.63;;
55372;SDS011;41249;47.838;16.490;2023-03-23T06:20:26;7.03;;;4.72;;
55372;SDS011;41249;47.838;16.490;2023-03-23T06:22:52;6.78;;;4.70;;
55372;SDS011;41249;47.838;16.490;2023-03-23T06:25:18;5.60;;;3.80;;
55372;SDS011;41249;47.838;16.490;2023-03-23T06:27:44;9.32;;;4.32;;
55372;SDS011;41249;47.838;16.490;2023-03-23T06:30:11;6.05;;;3.35;;
55372;SDS011;41249;47.838;16.490;2023-03-23T06:32:40;6.30;;;3.35;;
55372;SDS011;41249;47.838;16.490;2023-03-23T06:35:07;8.48;;;3.58;;
55372;SDS011;41249;47.838;16.490;2023-03-23T06:37:34;6.93;;;4.50;;
55372;SDS011;41249;47.838;16.490;2023-03-23T06:40:01;7.35;;;3.65;;
55372;SDS011;41249;47.838;16.490;2023-03-23T06:42:29;6.68;;;3.45;;
55372;SDS011;41249;47.838;16.490;2023-03-23T06:44:55;5.68;;;3.65;;
55372;SDS011;41249;47.838;16.490;2023-03-23T06:47:22;5.32;;;3.67;;
55372;SDS011;41249;47.838;16.490;2023-03-23T06:49:48;8.55;;;3.53;;
55372;SDS011;41249;47.838;16.490;2023-03-23T06:52:14;7.10;;;3.50;;
55372;SDS011;41249;47.838;16.490;2023-03-23T06:54:40;4.85;;;3.75;;
55372;SDS011;41249;47.838;16.490;2023-03-23T06:57:05;4.10;;;3.10;;
55372;SDS011;41249;47.838;16.490;2023-03-23T06:59:32;8.85;;;3.20;;
55372;SDS011;41249;47.838;16.490;2023-03-23T07:01:57;5.00;;;3.15;;
55372;SDS011;41249;47.838;16.490;2023-03-23T07:04:23;5.68;;;3.35;;
55372;SDS011;41249;47.838;16.490;2023-03-23T07:06:48;5.65;;;3.38;;
55372;SDS011;41249;47.838;16.490;2023-03-23T07:09:14;4.47;;;3.10;;
55372;SDS011;41249;47.838;16.490;2023-03-23T07:11:40;3.88;;;3.47;;
55372;SDS011;41249;47.838;16.490;2023-03-23T07:14:06;5.43;;;3.63;;
55372;SDS011;41249;47.838;16.490;2023-03-23T07:16:32;5.22;;;3.67;;
55372;SDS011;41249;47.838;16.490;2023-03-23T07:18:58;3.72;;;2.90;;
55372;SDS011;41249;47.838;16.490;2023-03-23T07:21:24;4.50;;;3.58;;
55372;SDS011;41249;47.838;16.490;2023-03-23T07:23:50;6.20;;;4.07;;
55372;SDS011;41249;47.838;16.490;2023-03-23T07:26:15;5.10;;;3.55;;
55372;SDS011;41249;47.838;16.490;2023-03-23T07:28:41;4.78;;;3.30;;
55372;SDS011;41249;47.838;16.490;2023-03-23T07:31:07;7.18;;;3.90;;
55372;SDS011;41249;47.838;16.490;2023-03-23T07:33:34;6.78;;;3.67;;
55372;SDS011;41249;47.838;16.490;2023-03-23T07:36:00;5.93;;;3.83;;
55372;SDS011;41249;47.838;16.490;2023-03-23T07:38:27;6.32;;;3.42;;
55372;SDS011;41249;47.838;16.490;2023-03-23T07:40:53;5.88;;;3.50;;
55372;SDS011;41249;47.838;16.490;2023-03-23T07:43:19;5.57;;;3.38;;
55372;SDS011;41249;47.838;16.490;2023-03-23T07:45:46;6.47;;;3.38;;
55372;SDS011;41249;47.838;16.490;2023-03-23T07:48:11;5.70;;;3.90;;
55372;SDS011;41249;47.838;16.490;2023-03-23T07:50:37;5.13;;;3.55;;
55372;SDS011;41249;47.838;16.490;2023-03-23T07:53:03;9.60;;;3.30;;
55372;SDS011;41249;47.838;16.490;2023-03-23T07:55:28;5.93;;;3.75;;
55372;SDS011;41249;47.838;16.490;2023-03-23T07:57:54;5.40;;;3.65;;
55372;SDS011;41249;47.838;16.490;2023-03-23T08:00:20;5.65;;;4.40;;
55372;SDS011;41249;47.838;16.490;2023-03-23T08:02:52;6.00;;;4.38;;
55372;SDS011;41249;47.838;16.490;2023-03-23T08:05:20;8.32;;;3.90;;
55372;SDS011;41249;47.838;16.490;2023-03-23T08:07:47;9.90;;;3.88;;
55372;SDS011;41249;47.838;16.490;2023-03-23T08:10:14;4.80;;;3.75;;
55372;SDS011;41249;47.838;16.490;2023-03-23T08:12:40;5.70;;;3.88;;
55372;SDS011;41249;47.838;16.490;2023-03-23T08:15:08;5.97;;;4.15;;
55372;SDS011;41249;47.838;16.490;2023-03-23T08:17:37;10.85;;;5.47;;
55372;SDS011;41249;47.838;16.490;2023-03-23T08:20:03;14.23;;;4.30;;
55372;SDS011;41249;47.838;16.490;2023-03-23T08:22:36;8.27;;;4.13;;
55372;SDS011;41249;47.838;16.490;2023-03-23T08:25:04;7.00;;;4.15;;
55372;SDS011;41249;47.838;16.490;2023-03-23T08:27:31;7.53;;;3.92;;
55372;SDS011;41249;47.838;16.490;2023-03-23T08:29:57;5.95;;;4.35;;
55372;SDS011;41249;47.838;16.490;2023-03-23T08:32:23;8.15;;;3.97;;
55372;SDS011;41249;47.838;16.490;2023-03-23T08:34:49;8.60;;;3.58;;
55372;SDS011;41249;47.838;16.490;2023-03-23T08:37:15;8.70;;;4.68;;
55372;SDS011;41249;47.838;16.490;2023-03-23T08:39:41;12.40;;;4.45;;
55372;SDS011;41249;47.838;16.490;2023-03-23T08:42:10;10.63;;;4.78;;
55372;SDS011;41249;47.838;16.490;2023-03-23T08:44:36;11.40;;;4.60;;
55372;SDS011;41249;47.838;16.490;2023-03-23T08:47:02;9.55;;;4.07;;
55372;SDS011;41249;47.838;16.490;2023-03-23T08:49:30;6.07;;;3.47;;
55372;SDS011;41249;47.838;16.490;2023-03-23T08:51:58;8.82;;;3.90;;
55372;SDS011;41249;47.838;16.490;2023-03-23T08:54:24;4.03;;;3.63;;
55372;SDS011;41249;47.838;16.490;2023-03-23T08:56:49;8.02;;;4.18;;
55372;SDS011;41249;47.838;16.490;2023-03-23T08:59:15;7.93;;;4.13;;
55372;SDS011;41249;47.838;16.490;2023-03-23T09:01:40;5.65;;;3.53;;
55372;SDS011;41249;47.838;16.490;2023-03-23T09:04:07;10.57;;;3.72;;
55372;SDS011;41249;47.838;16.490;2023-03-23T09:06:34;5.50;;;3.55;;
55372;SDS011;41249;47.838;16.490;2023-03-23T09:09:01;6.60;;;3.58;;
55372;SDS011;41249;47.838;16.490;2023-03-23T09:11:32;5.80;;;3.67;;
55372;SDS011;41249;47.838;16.490;2023-03-23T09:13:59;5.47;;;3.47;;
55372;SDS011;41249;47.838;16.490;2023-03-23T09:16:24;4.65;;;3.17;;
55372;SDS011;41249;47.838;16.490;2023-03-23T09:18:50;7.35;;;3.60;;
55372;SDS011;41249;47.838;16.490;2023-03-23T09:21:15;7.43;;;4.20;;
55372;SDS011;41249;47.838;16.490;2023-03-23T09:23:41;8.00;;;3.47;;
55372;SDS011;41249;47.838;16.490;2023-03-23T09:26:09;5.78;;;4.00;;
55372;SDS011;41249;47.838;16.490;2023-03-23T09:28:35;12.63;;;4.32;;
55372;SDS011;41249;47.838;16.490;2023-03-23T09:31:01;4.30;;;3.60;;
55372;SDS011;41249;47.838;16.490;2023-03-23T09:33:27;6.60;;;3.67;;
55372;SDS011;41249;47.838;16.490;2023-03-23T09:35:57;8.02;;;3.70;;
55372;SDS011;41249;47.838;16.490;2023-03-23T09:38:23;10.90;;;4.13;;
55372;SDS011;41249;47.838;16.490;2023-03-23T09:48:58;5.80;;;3.05;;
55372;SDS011;41249;47.838;16.490;2023-03-23T09:56:38;5.88;;;3.63;;
55372;SDS011;41249;47.838;16.490;2023-03-23T09:59:19;6.55;;;3.88;;
55372;SDS011;41249;47.838;16.490;2023-03-23T10:01:50;7.88;;;4.20;;
55372;SDS011;41249;47.838;16.490;2023-03-23T10:07:24;6.45;;;3.80;;
55372;SDS011;41249;47.838;16.490;2023-03-23T10:09:56;9.07;;;4.35;;
55372;SDS011;41249;47.838;16.490;2023-03-23T10:15:18;5.13;;;3.38;;
55372;SDS011;41249;47.838;16.490;2023-03-23T10:17:50;3.95;;;3.00;;
55372;SDS011;41249;47.838;16.490;2023-03-23T10:29:14;4.38;;;2.85;;
55372;SDS011;41249;47.838;16.490;2023-03-23T10:31:41;5.38;;;3.10;;
55372;SDS011;41249;47.838;16.490;2023-03-23T10:34:12;6.15;;;3.63;;
55372;SDS011;41249;47.838;16.490;2023-03-23T10:36:56;4.40;;;3.20;;
55372;SDS011;41249;47.838;16.490;2023-03-23T10:39:29;4.47;;;3.08;;
55372;SDS011;41249;47.838;16.490;2023-03-23T10:42:00;4.78;;;3.58;;
55372;SDS011;41249;47.838;16.490;2023-03-23T10:44:32;5.47;;;2.80;;
55372;SDS011;41249;47.838;16.490;2023-03-23T10:47:05;4.07;;;3.03;;
55372;SDS011;41249;47.838;16.490;2023-03-23T10:49:38;4.45;;;3.03;;
55372;SDS011;41249;47.838;16.490;2023-03-23T10:55:19;4.57;;;2.50;;
55372;SDS011;41249;47.838;16.490;2023-03-23T10:58:05;3.30;;;2.15;;
55372;SDS011;41249;47.838;16.490;2023-03-23T11:00:33;7.53;;;2.70;;
55372;SDS011;41249;47.838;16.490;2023-03-23T11:03:52;7.72;;;2.97;;
55372;SDS011;41249;47.838;16.490;2023-03-23T11:05:59;6.47;;;2.83;;
55372;SDS011;41249;47.838;16.490;2023-03-23T11:08:32;4.68;;;3.25;;
55372;SDS011;41249;47.838;16.490;2023-03-23T11:11:11;3.90;;;2.55;;
55372;SDS011;41249;47.838;16.490;2023-03-23T11:13:42;3.53;;;2.35;;
55372;SDS011;41249;47.838;16.490;2023-03-23T11:16:10;4.00;;;2.92;;
55372;SDS011;41249;47.838;16.490;2023-03-23T11:18:58;6.53;;;2.60;;
55372;SDS011;41249;47.838;16.490;2023-03-23T11:21:26;5.57;;;2.72;;
55372;SDS011;41249;47.838;16.490;2023-03-23T11:23:54;2.63;;;2.35;;
55372;SDS011;41249;47.838;16.490;2023-03-23T11:26:27;4.55;;;2.85;;
55372;SDS011;41249;47.838;16.490;2023-03-23T11:28:59;5.97;;;2.78;;
55372;SDS011;41249;47.838;16.490;2023-03-23T11:31:32;2.80;;;2.13;;
55372;SDS011;41249;47.838;16.490;2023-03-23T11:34:03;3.30;;;2.40;;
55372;SDS011;41249;47.838;16.490;2023-03-23T11:36:41;5.40;;;2.30;;
55372;SDS011;41249;47.838;16.490;2023-03-23T11:41:53;3.58;;;2.05;;
55372;SDS011;41249;47.838;16.490;2023-03-23T11:44:20;3.90;;;2.30;;
55372;SDS011;41249;47.838;16.490;2023-03-23T11:49:22;3.45;;;2.30;;
55372;SDS011;41249;47.838;16.490;2023-03-23T11:51:58;5.03;;;2.53;;
55372;SDS011;41249;47.838;16.490;2023-03-23T11:57:09;5.10;;;2.80;;
55372;SDS011;41249;47.838;16.490;2023-03-23T11:59:37;3.47;;;2.35;;
55372;SDS011;41249;47.838;16.490;2023-03-23T12:05:13;3.60;;;2.70;;
55372;SDS011;41249;47.838;16.490;2023-03-23T12:10:27;2.53;;;1.80;;
55372;SDS011;41249;47.838;16.490;2023-03-23T12:15:52;4.35;;;2.40;;
55372;SDS011;41249;47.838;16.490;2023-03-23T12:26:54;4.20;;;2.10;;
55372;SDS011;41249;47.838;16.490;2023-03-23T12:32:44;4.30;;;2.80;;
55372;SDS011;41249;47.838;16.490;2023-03-23T12:41:15;7.10;;;2.75;;
55372;SDS011;41249;47.838;16.490;2023-03-23T12:44:02;3.42;;;2.80;;
55372;SDS011;41249;47.838;16.490;2023-03-23T12:49:20;6.30;;;3.50;;
55372;SDS011;41249;47.838;16.490;2023-03-23T12:52:01;4.93;;;3.00;;
55372;SDS011;41249;47.838;16.490;2023-03-23T12:54:33;8.65;;;3.50;;
55372;SDS011;41249;47.838;16.490;2023-03-23T13:02:21;4.95;;;3.75;;
55372;SDS011;41249;47.838;16.490;2023-03-23T13:04:52;4.22;;;3.22;;
55372;SDS011;41249;47.838;16.490;2023-03-23T13:07:27;7.80;;;3.50;;
55372;SDS011;41249;47.838;16.490;2023-03-23T13:10:02;4.13;;;3.25;;
55372;SDS011;41249;47.838;16.490;2023-03-23T13:12:31;5.32;;;3.25;;
55372;SDS011;41249;47.838;16.490;2023-03-23T13:23:35;5.60;;;2.90;;
55372;SDS011;41249;47.838;16.490;2023-03-23T13:31:25;7.15;;;3.70;;
55372;SDS011;41249;47.838;16.490;2023-03-23T13:34:03;4.27;;;3.43;;
55372;SDS011;41249;47.838;16.490;2023-03-23T13:36:44;6.60;;;3.67;;
55372;SDS011;41249;47.838;16.490;2023-03-23T13:39:17;5.10;;;4.07;;
55372;SDS011;41249;47.838;16.490;2023-03-23T13:42:47;5.65;;;4.05;;
55372;SDS011;41249;47.838;16.490;2023-03-23T13:45:06;6.93;;;3.97;;
55372;SDS011;41249;47.838;16.490;2023-03-23T13:47:36;5.30;;;3.33;;
55372;SDS011;41249;47.838;16.490;2023-03-23T13:50:24;5.63;;;4.05;;
55372;SDS011;41249;47.838;16.490;2023-03-23T13:52:54;11.00;;;3.67;;
55372;SDS011;41249;47.838;16.490;2023-03-23T13:55:42;8.50;;;3.47;;
55372;SDS011;41249;47.838;16.490;2023-03-23T13:58:21;5.43;;;3.90;;
55372;SDS011;41249;47.838;16.490;2023-03-23T14:00:50;5.82;;;3.55;;
55372;SDS011;41249;47.838;16.490;2023-03-23T14:06:03;6.97;;;3.85;;
55372;SDS011;41249;47.838;16.490;2023-03-23T14:10:58;7.03;;;3.67;;
55372;SDS011;41249;47.838;16.490;2023-03-23T14:13:32;8.27;;;4.03;;
55372;SDS011;41249;47.838;16.490;2023-03-23T14:16:04;6.70;;;3.25;;
55372;SDS011;41249;47.838;16.490;2023-03-23T14:18:41;7.93;;;3.95;;
55372;SDS011;41249;47.838;16.490;2023-03-23T14:21:15;5.70;;;3.08;;
55372;SDS011;41249;47.838;16.490;2023-03-23T14:23:41;7.30;;;3.88;;
55372;SDS011;41249;47.838;16.490;2023-03-23T14:26:11;7.78;;;3.83;;
55372;SDS011;41249;47.838;16.490;2023-03-23T14:28:42;6.35;;;3.15;;
55372;SDS011;41249;47.838;16.490;2023-03-23T14:31:22;7.00;;;3.80;;
55372;SDS011;41249;47.838;16.490;2023-03-23T14:33:50;5.60;;;3.30;;
55372;SDS011;41249;47.838;16.490;2023-03-23T14:36:21;5.80;;;3.30;;
55372;SDS011;41249;47.838;16.490;2023-03-23T14:38:59;8.68;;;3.63;;
55372;SDS011;41249;47.838;16.490;2023-03-23T14:41:44;4.07;;;2.67;;
55372;SDS011;41249;47.838;16.490;2023-03-23T14:44:13;6.05;;;2.65;;
55372;SDS011;41249;47.838;16.490;2023-03-23T14:46:42;4.65;;;2.90;;
55372;SDS011;41249;47.838;16.490;2023-03-23T14:49:11;5.00;;;2.88;;
55372;SDS011;41249;47.838;16.490;2023-03-23T14:52:26;4.60;;;2.53;;
55372;SDS011;41249;47.838;16.490;2023-03-23T14:54:39;8.57;;;2.92;;
55372;SDS011;41249;47.838;16.490;2023-03-23T14:57:11;5.03;;;2.83;;
55372;SDS011;41249;47.838;16.490;2023-03-23T14:59:45;6.18;;;2.95;;
55372;SDS011;41249;47.838;16.490;2023-03-23T15:02:23;5.50;;;3.13;;
55372;SDS011;41249;47.838;16.490;2023-03-23T15:04:54;5.35;;;3.00;;
55372;SDS011;41249;47.838;16.490;2023-03-23T15:07:27;3.95;;;2.53;;
55372;SDS011;41249;47.838;16.490;2023-03-23T15:09:56;4.32;;;2.67;;
55372;SDS011;41249;47.838;16.490;2023-03-23T15:12:24;3.95;;;2.47;;
55372;SDS011;41249;47.838;16.490;2023-03-23T15:14:53;4.68;;;2.90;;
55372;SDS011;41249;47.838;16.490;2023-03-23T15:17:44;5.38;;;2.70;;
55372;SDS011;41249;47.838;16.490;2023-03-23T15:23:21;10.43;;;3.40;;
55372;SDS011;41249;47.838;16.490;2023-03-23T15:25:53;9.55;;;3.20;;
55372;SDS011;41249;47.838;16.490;2023-03-23T15:28:21;8.05;;;3.40;;
55372;SDS011;41249;47.838;16.490;2023-03-23T15:30:54;5.65;;;3.38;;
55372;SDS011;41249;47.838;16.490;2023-03-23T15:33:23;10.18;;;3.75;;
55372;SDS011;41249;47.838;16.490;2023-03-23T15:35:53;7.40;;;3.50;;
55372;SDS011;41249;47.838;16.490;2023-03-23T15:38:24;5.45;;;3.35;;
55372;SDS011;41249;47.838;16.490;2023-03-23T15:40:52;12.50;;;4.10;;
55372;SDS011;41249;47.838;16.490;2023-03-23T15:43:26;9.98;;;3.42;;
55372;SDS011;41249;47.838;16.490;2023-03-23T15:45:57;7.13;;;3.70;;
55372;SDS011;41249;47.838;16.490;2023-03-23T15:48:51;10.40;;;5.03;;
55372;SDS011;41249;47.838;16.490;2023-03-23T15:51:32;6.15;;;4.45;;
55372;SDS011;41249;47.838;16.490;2023-03-23T15:53:59;6.53;;;4.15;;
55372;SDS011;41249;47.838;16.490;2023-03-23T15:56:24;14.52;;;4.32;;
55372;SDS011;41249;47.838;16.490;2023-03-23T15:58:51;8.43;;;3.70;;
55372;SDS011;41249;47.838;16.490;2023-03-23T16:01:25;14.50;;;4.72;;
55372;SDS011;41249;47.838;16.490;2023-03-23T16:04:04;12.48;;;4.05;;
55372;SDS011;41249;47.838;16.490;2023-03-23T16:06:34;6.35;;;4.22;;
55372;SDS011;41249;47.838;16.490;2023-03-23T16:09:02;5.60;;;4.15;;
55372;SDS011;41249;47.838;16.490;2023-03-23T16:11:31;7.78;;;4.00;;
55372;SDS011;41249;47.838;16.490;2023-03-23T16:13:59;9.98;;;4.32;;
55372;SDS011;41249;47.838;16.490;2023-03-23T16:16:31;8.73;;;4.57;;
55372;SDS011;41249;47.838;16.490;2023-03-23T16:19:00;6.82;;;4.13;;
55372;SDS011;41249;47.838;16.490;2023-03-23T16:21:27;15.00;;;4.53;;
55372;SDS011;41249;47.838;16.490;2023-03-23T16:23:54;11.38;;;4.47;;
55372;SDS011;41249;47.838;16.490;2023-03-23T16:26:22;6.20;;;4.63;;
55372;SDS011;41249;47.838;16.490;2023-03-23T16:28:49;6.57;;;4.22;;
55372;SDS011;41249;47.838;16.490;2023-03-23T16:31:20;5.72;;;4.25;;
55372;SDS011;41249;47.838;16.490;2023-03-23T16:33:48;6.70;;;4.47;;
55372;SDS011;41249;47.838;16.490;2023-03-23T16:36:14;11.30;;;4.80;;
55372;SDS011;41249;47.838;16.490;2023-03-23T16:38:41;10.02;;;4.65;;
55372;SDS011;41249;47.838;16.490;2023-03-23T16:41:16;9.85;;;4.72;;
55372;SDS011;41249;47.838;16.490;2023-03-23T16:43:43;7.68;;;4.32;;
55372;SDS011;41249;47.838;16.490;2023-03-23T16:46:11;7.95;;;4.93;;
55372;SDS011;41249;47.838;16.490;2023-03-23T16:48:39;11.27;;;4.78;;
55372;SDS011;41249;47.838;16.490;2023-03-23T16:51:06;8.80;;;5.40;;